Time;durP1;ratioP1;P1;durP2;ratioP2;P2;SDS_P1;SDS_P2;PMS_P1;PMS_P2;Temp;Humidity;BMP_temperature;BMP_pressure;BME280_temperature;BME280_humidity;BME280_pressure;Samples;Min_cycle;Max_cycle;Signal;HPM_P1;HPM_P2
2023/06/09 00:02:03;;;;;;;;;;;;;;;13.53;100.00;99502.13;5014995;28;855;-61
2023/06/09 00:04:33;;;;;;;;;;;;;;;13.52;100.00;99500.56;5014421;28;1886;-61
2023/06/09 00:07:01;;;;;;;;;;;;;;;13.59;100.00;99500.41;5014302;28;828;-62
2023/06/09 00:09:29;;;;;;;;;;;;;;;13.50;100.00;99499.44;5014284;28;832;-62
2023/06/09 00:11:56;;;;;;;;;;;;;;;13.42;100.00;99501.56;5014028;28;1206;-62
2023/06/09 00:14:23;;;;;;;;;;;;;;;13.27;100.00;99504.63;5014156;28;828;-61
2023/06/09 00:16:49;;;;;;;;;;;;;;;13.25;100.00;99501.50;5014043;28;858;-62
2023/06/09 00:19:19;;;;;;;;;;;;;;;13.21;100.00;99500.00;5014082;28;839;-61
2023/06/09 00:21:49;;;;;;;;;;;;;;;13.04;100.00;99501.94;5013977;28;907;-61
2023/06/09 00:24:18;;;;;;;;;;;;;;;12.85;100.00;99500.72;5013927;28;1973;-61
2023/06/09 00:26:46;;;;;;;;;;;;;;;12.65;100.00;99503.44;5013741;28;923;-61
2023/06/09 00:29:16;;;;;;;;;;;;;;;12.56;100.00;99498.44;5013838;28;871;-61
2023/06/09 00:31:43;;;;;;;;;;;;;;;12.50;100.00;99496.59;5013756;28;824;-61
2023/06/09 00:34:09;;;;;;;;;;;;;;;12.53;100.00;99493.00;5013755;28;816;-61
2023/06/09 00:36:36;;;;;;;;;;;;;;;12.64;100.00;99496.34;5013686;28;879;-61
2023/06/09 00:39:03;;;;;;;;;;;;;;;12.72;100.00;99495.00;5013623;28;1252;-61
2023/06/09 00:41:29;;;;;;;;;;;;;;;12.71;100.00;99501.75;5013552;28;910;-61
2023/06/09 00:43:56;;;;;;;;;;;;;;;12.69;100.00;99501.38;5012846;28;1953;-61
2023/06/09 00:46:23;;;;;;;;;;;;;;;12.71;100.00;99495.44;5013489;28;836;-61
2023/06/09 00:48:50;;;;;;;;;;;;;;;12.74;100.00;99495.38;5013496;28;832;-61
2023/06/09 00:51:16;;;;;;;;;;;;;;;12.70;100.00;99494.66;5013477;28;902;-61
2023/06/09 00:53:43;;;;;;;;;;;;;;;12.63;100.00;99490.03;5013340;28;896;-61
2023/06/09 00:56:11;;;;;;;;;;;;;;;12.64;100.00;99482.47;5013343;28;875;-61
2023/06/09 00:58:38;;;;;;;;;;;;;;;12.66;100.00;99483.63;5013252;28;1218;-61
2023/06/09 01:01:05;;;;;;;;;;;;;;;12.68;100.00;99477.66;5013268;28;816;-61
2023/06/09 01:03:32;;;;;;;;;;;;;;;12.61;100.00;99480.53;5013069;28;1895;-61
2023/06/09 01:06:23;;;;;;;;;;;;;;;12.53;100.00;99484.66;5013174;28;863;-61
2023/06/09 01:08:58;;;;;;;;;;;;;;;12.41;100.00;99475.75;5012886;28;1223;-62
2023/06/09 01:11:37;;;;;;;;;;;;;;;12.40;100.00;99473.41;5012779;28;1147;-61
2023/06/09 01:14:17;;;;;;;;;;;;;;;12.39;100.00;99478.16;5012999;28;855;-61
2023/06/09 01:16:53;;;;;;;;;;;;;;;12.33;100.00;99479.88;5013130;28;836;-61
2023/06/09 01:19:33;;;;;;;;;;;;;;;12.25;100.00;99479.19;5012936;28;824;-62
2023/06/09 01:22:02;;;;;;;;;;;;;;;12.15;100.00;99482.91;5012923;28;808;-62
2023/06/09 01:24:45;;;;;;;;;;;;;;;12.07;100.00;99480.69;5012758;28;1898;-62
2023/06/09 01:27:14;;;;;;;;;;;;;;;11.98;100.00;99475.69;5012658;28;816;-62
2023/06/09 01:29:43;;;;;;;;;;;;;;;11.92;100.00;99482.91;5012679;28;820;-62
2023/06/09 01:32:10;;;;;;;;;;;;;;;11.87;100.00;99477.81;5012615;28;834;-62
2023/06/09 01:34:37;;;;;;;;;;;;;;;11.81;100.00;99481.03;5012672;28;864;-63
2023/06/09 01:37:04;;;;;;;;;;;;;;;11.81;100.00;99466.41;5012572;28;899;-62
2023/06/09 01:39:32;;;;;;;;;;;;;;;11.79;100.00;99466.84;5012879;28;860;-62
2023/06/09 01:41:59;;;;;;;;;;;;;;;11.78;100.00;99464.50;5012511;28;831;-62
2023/06/09 01:44:25;;;;;;;;;;;;;;;11.75;100.00;99471.63;5012451;28;1886;-62
2023/06/09 01:46:52;;;;;;;;;;;;;;;11.78;100.00;99472.81;5012618;28;816;-62
2023/06/09 01:49:42;;;;;;;;;;;;;;;11.78;100.00;99470.81;5012663;28;907;-62
2023/06/09 01:52:26;;;;;;;;;;;;;;;11.76;100.00;99475.22;5009349;28;1032;-63
2023/06/09 01:54:55;;;;;;;;;;;;;;;11.73;100.00;99474.03;5011425;28;875;-62
2023/06/09 01:57:39;;;;;;;;;;;;;;;11.74;100.00;99474.84;5012242;28;877;-63
2023/06/09 02:00:07;;;;;;;;;;;;;;;11.75;100.00;99481.94;5012205;28;836;-62
2023/06/09 02:02:34;;;;;;;;;;;;;;;11.77;100.00;99476.75;5012190;28;1957;-62
2023/06/09 02:05:04;;;;;;;;;;;;;;;11.78;100.00;99481.91;5012087;28;884;-62
2023/06/09 02:07:32;;;;;;;;;;;;;;;11.80;100.00;99485.03;5012071;28;1074;-62
2023/06/09 02:09:59;;;;;;;;;;;;;;;11.88;100.00;99484.91;5012045;28;1030;-62
2023/06/09 02:12:33;;;;;;;;;;;;;;;11.96;100.00;99480.88;5011775;28;1412;-61
2023/06/09 02:15:00;;;;;;;;;;;;;;;12.03;100.00;99475.19;5011960;28;911;-61
2023/06/09 02:17:27;;;;;;;;;;;;;;;12.13;100.00;99477.00;5011967;28;867;-62
2023/06/09 02:19:54;;;;;;;;;;;;;;;12.16;100.00;99478.97;5011872;28;868;-62
2023/06/09 02:22:21;;;;;;;;;;;;;;;12.18;100.00;99478.53;5011822;28;1910;-62
2023/06/09 02:24:48;;;;;;;;;;;;;;;12.19;100.00;99475.34;5011790;28;817;-62
2023/06/09 02:27:15;;;;;;;;;;;;;;;12.20;100.00;99478.88;5011819;28;891;-62
2023/06/09 02:29:40;;;;;;;;;;;;;;;12.10;100.00;99477.06;5011797;28;879;-62
2023/06/09 02:32:07;;;;;;;;;;;;;;;11.93;100.00;99471.41;5011970;28;875;-62
2023/06/09 02:34:34;;;;;;;;;;;;;;;11.84;100.00;99480.22;5011780;28;863;-63
2023/06/09 02:37:02;;;;;;;;;;;;;;;11.84;100.00;99482.19;5011765;28;1012;-63
2023/06/09 02:39:28;;;;;;;;;;;;;;;11.77;100.00;99480.31;5011767;28;828;-63
2023/06/09 02:41:55;;;;;;;;;;;;;;;11.74;100.00;99481.16;5011702;28;841;-62
2023/06/09 02:44:22;;;;;;;;;;;;;;;11.71;100.00;99483.97;5011662;28;1886;-62
2023/06/09 02:46:48;;;;;;;;;;;;;;;11.71;100.00;99481.22;5011619;28;816;-62
2023/06/09 02:49:16;;;;;;;;;;;;;;;11.81;100.00;99492.13;5011869;28;879;-62
2023/06/09 02:51:42;;;;;;;;;;;;;;;11.94;100.00;99505.41;5011628;28;887;-62
2023/06/09 02:54:09;;;;;;;;;;;;;;;11.95;100.00;99505.00;5011485;28;840;-62
2023/06/09 02:56:36;;;;;;;;;;;;;;;11.97;100.00;99507.34;5011535;28;1015;-62
2023/06/09 02:59:03;;;;;;;;;;;;;;;12.02;100.00;99510.44;5011544;28;924;-62
2023/06/09 03:01:35;;;;;;;;;;;;;;;12.05;100.00;99506.84;5010368;28;1479;-61
2023/06/09 03:04:06;;;;;;;;;;;;;;;12.11;100.00;99504.34;5011494;28;1949;-62
2023/06/09 03:06:33;;;;;;;;;;;;;;;12.16;100.00;99509.44;5012435;28;859;-61
2023/06/09 03:09:01;;;;;;;;;;;;;;;12.19;100.00;99505.81;5015330;28;536;-61
2023/06/09 03:11:27;;;;;;;;;;;;;;;12.22;100.00;99506.97;5014757;28;1337;-61
2023/06/09 03:13:54;;;;;;;;;;;;;;;12.22;100.00;99507.72;5015261;28;919;-61
2023/06/09 03:16:21;;;;;;;;;;;;;;;12.24;100.00;99512.84;5015256;28;812;-61
2023/06/09 03:18:47;;;;;;;;;;;;;;;12.30;100.00;99507.63;5013856;28;1491;-61
2023/06/09 03:21:14;;;;;;;;;;;;;;;12.34;100.00;99500.81;5015119;28;879;-61
2023/06/09 03:23:40;;;;;;;;;;;;;;;12.40;100.00;99506.66;5014982;28;1906;-61
2023/06/09 03:26:07;;;;;;;;;;;;;;;12.45;100.00;99509.72;5015193;28;1157;-62
2023/06/09 03:28:34;;;;;;;;;;;;;;;12.51;100.00;99518.34;5015127;28;816;-62
2023/06/09 03:31:00;;;;;;;;;;;;;;;12.56;100.00;99517.06;5015163;28;821;-62
2023/06/09 03:33:29;;;;;;;;;;;;;;;12.58;100.00;99504.34;5015216;28;868;-62
2023/06/09 03:35:55;;;;;;;;;;;;;;;12.64;100.00;99513.75;5014956;28;832;-63
2023/06/09 03:38:22;;;;;;;;;;;;;;;12.71;100.00;99521.16;5014941;28;816;-61
2023/06/09 03:40:48;;;;;;;;;;;;;;;12.79;100.00;99519.06;5014931;28;831;-61
2023/06/09 03:43:15;;;;;;;;;;;;;;;12.86;100.00;99516.13;5014979;28;1886;-62
2023/06/09 03:45:42;;;;;;;;;;;;;;;12.92;100.00;99519.22;5014892;28;852;-61
2023/06/09 03:48:08;;;;;;;;;;;;;;;12.99;100.00;99521.84;5013873;28;2656;-62
2023/06/09 03:50:35;;;;;;;;;;;;;;;13.05;100.00;99518.13;5015026;28;871;-61
2023/06/09 03:53:02;;;;;;;;;;;;;;;13.15;100.00;99513.59;5014516;28;808;-62
2023/06/09 03:55:31;;;;;;;;;;;;;;;13.27;100.00;99517.69;5014844;28;816;-61
2023/06/09 03:57:57;;;;;;;;;;;;;;;13.39;100.00;99532.97;5014733;28;840;-61
2023/06/09 04:00:25;;;;;;;;;;;;;;;13.50;100.00;99525.19;5014734;28;808;-61
2023/06/09 04:02:52;;;;;;;;;;;;;;;13.68;100.00;99517.28;5014470;28;1886;-61
2023/06/09 04:05:18;;;;;;;;;;;;;;;13.88;100.00;99524.75;5014802;28;891;-61
2023/06/09 04:07:45;;;;;;;;;;;;;;;14.07;100.00;99529.47;5014513;28;812;-62
2023/06/09 04:10:12;;;;;;;;;;;;;;;14.28;100.00;99527.41;5014471;28;871;-62
2023/06/09 04:12:41;;;;;;;;;;;;;;;14.41;100.00;99528.25;5014194;28;1432;-61
2023/06/09 04:15:08;;;;;;;;;;;;;;;14.46;100.00;99529.72;5014224;28;922;-61
2023/06/09 04:17:36;;;;;;;;;;;;;;;14.43;100.00;99525.06;5013581;28;812;-61
2023/06/09 04:20:12;;;;;;;;;;;;;;;14.38;100.00;99533.91;5013625;28;891;-61
2023/06/09 04:22:48;;;;;;;;;;;;;;;14.44;100.00;99537.72;5013801;28;2043;-61
2023/06/09 04:25:15;;;;;;;;;;;;;;;14.51;100.00;99537.56;5014723;28;780;-61
2023/06/09 04:27:42;;;;;;;;;;;;;;;14.53;100.00;99535.13;5014081;28;812;-61
2023/06/09 04:30:10;;;;;;;;;;;;;;;14.61;100.00;99532.97;5014042;28;852;-61
2023/06/09 04:32:37;;;;;;;;;;;;;;;14.68;100.00;99539.13;5014039;28;871;-62
2023/06/09 04:35:04;;;;;;;;;;;;;;;14.80;100.00;99536.84;5013961;28;903;-61
2023/06/09 04:37:31;;;;;;;;;;;;;;;14.88;100.00;99538.22;5014200;28;876;-61
2023/06/09 04:39:58;;;;;;;;;;;;;;;15.08;100.00;99541.66;5013736;28;922;-62
2023/06/09 04:42:25;;;;;;;;;;;;;;;15.37;100.00;99540.84;5013783;28;1955;-61
2023/06/09 04:44:53;;;;;;;;;;;;;;;15.70;100.00;99538.69;5013779;28;855;-62
2023/06/09 04:47:20;;;;;;;;;;;;;;;16.02;100.00;99536.94;5013521;28;914;-61
2023/06/09 04:49:49;;;;;;;;;;;;;;;16.30;100.00;99542.81;5013545;28;883;-62
2023/06/09 04:52:19;;;;;;;;;;;;;;;16.57;100.00;99536.75;5013640;28;887;-62
2023/06/09 04:54:46;;;;;;;;;;;;;;;16.91;100.00;99533.22;5013424;28;902;-63
2023/06/09 04:57:13;;;;;;;;;;;;;;;17.19;100.00;99538.25;5012175;28;852;-62
2023/06/09 04:59:40;;;;;;;;;;;;;;;17.38;100.00;99544.75;5013234;28;1032;-62
2023/06/09 05:02:08;;;;;;;;;;;;;;;17.56;100.00;99539.28;5013250;28;871;-61
2023/06/09 05:04:35;;;;;;;;;;;;;;;17.76;100.00;99545.28;5013149;28;1965;-62
2023/06/09 05:07:02;;;;;;;;;;;;;;;18.00;100.00;99546.81;5013086;28;840;-61
2023/06/09 05:09:28;;;;;;;;;;;;;;;18.15;100.00;99550.59;5013199;28;855;-61
2023/06/09 05:11:55;;;;;;;;;;;;;;;18.24;100.00;99547.03;5012603;28;1199;-61
2023/06/09 05:14:23;;;;;;;;;;;;;;;18.35;100.00;99548.19;5013261;28;840;-61
2023/06/09 05:16:50;;;;;;;;;;;;;;;18.57;100.00;99541.69;5012948;28;816;-62
2023/06/09 05:19:16;;;;;;;;;;;;;;;18.78;100.00;99551.25;5012905;28;864;-62
2023/06/09 05:21:46;;;;;;;;;;;;;;;18.92;100.00;99553.41;5012694;28;1082;-62
2023/06/09 05:24:12;;;;;;;;;;;;;;;19.14;100.00;99550.47;5012691;28;1914;-62
2023/06/09 05:26:38;;;;;;;;;;;;;;;19.50;100.00;99539.66;5012778;28;863;-62
2023/06/09 05:29:05;;;;;;;;;;;;;;;19.93;100.00;99548.94;5012587;28;828;-62
2023/06/09 05:31:32;;;;;;;;;;;;;;;20.37;100.00;99531.56;5012716;28;929;-63
2023/06/09 05:33:59;;;;;;;;;;;;;;;20.62;100.00;99535.19;5012536;28;939;-63
2023/06/09 05:36:26;;;;;;;;;;;;;;;20.79;100.00;99531.47;5012641;28;876;-62
2023/06/09 05:38:53;;;;;;;;;;;;;;;21.06;100.00;99540.94;5012632;28;888;-62
2023/06/09 05:41:20;;;;;;;;;;;;;;;21.48;100.00;99539.94;5011321;28;1243;-63
2023/06/09 05:43:47;;;;;;;;;;;;;;;21.67;100.00;99537.72;5012351;28;1967;-62
2023/06/09 05:46:14;;;;;;;;;;;;;;;21.74;100.00;99540.16;5012859;28;892;-62
2023/06/09 05:48:40;;;;;;;;;;;;;;;21.75;100.00;99544.50;5012482;28;880;-63
2023/06/09 05:51:07;;;;;;;;;;;;;;;21.98;100.00;99547.69;5012215;28;845;-63
2023/06/09 05:53:34;;;;;;;;;;;;;;;22.16;100.00;99539.00;5012352;28;832;-63
2023/06/09 05:56:02;;;;;;;;;;;;;;;22.41;100.00;99546.03;5012201;28;903;-62
2023/06/09 05:58:33;;;;;;;;;;;;;;;22.95;100.00;99551.34;5012319;28;922;-62
2023/06/09 06:01:00;;;;;;;;;;;;;;;23.73;100.00;99549.84;5012268;28;848;-62
2023/06/09 06:03:27;;;;;;;;;;;;;;;24.50;96.65;99547.38;5012216;28;1894;-62
2023/06/09 06:05:54;;;;;;;;;;;;;;;25.11;92.67;99543.22;5012109;28;840;-62
2023/06/09 06:08:20;;;;;;;;;;;;;;;25.57;90.43;99542.06;5012129;28;895;-63
2023/06/09 06:10:47;;;;;;;;;;;;;;;25.91;89.35;99542.09;5012151;28;1009;-62
2023/06/09 06:13:15;;;;;;;;;;;;;;;26.05;88.46;99541.03;5011887;28;1297;-62
2023/06/09 06:15:42;;;;;;;;;;;;;;;25.81;84.63;99539.50;5010640;28;919;-62
2023/06/09 06:18:09;;;;;;;;;;;;;;;25.39;81.78;99535.63;5010734;28;1223;-62
2023/06/09 06:20:35;;;;;;;;;;;;;;;24.97;82.27;99540.09;5011808;28;832;-63
2023/06/09 06:23:02;;;;;;;;;;;;;;;24.96;82.32;99538.56;5011829;28;1910;-62
2023/06/09 06:25:29;;;;;;;;;;;;;;;25.09;81.09;99538.06;5011883;28;828;-62
2023/06/09 06:27:55;;;;;;;;;;;;;;;25.29;80.90;99533.53;5011788;28;825;-62
2023/06/09 06:30:22;;;;;;;;;;;;;;;25.41;81.13;99535.09;5011853;28;907;-62
2023/06/09 06:32:51;;;;;;;;;;;;;;;25.85;80.24;99530.75;5011728;28;907;-63
2023/06/09 06:35:28;;;;;;;;;;;;;;;26.37;71.46;99520.91;5011785;28;916;-62
2023/06/09 06:37:55;;;;;;;;;;;;;;;26.81;69.63;99527.72;5011911;28;852;-63
2023/06/09 06:40:22;;;;;;;;;;;;;;;27.68;65.27;99533.94;5011949;28;868;-63
2023/06/09 06:42:49;;;;;;;;;;;;;;;28.65;60.84;99532.47;5017835;28;1886;-62
2023/06/09 06:45:16;;;;;;;;;;;;;;;29.60;54.84;99528.88;5018512;28;848;-64
2023/06/09 06:47:43;;;;;;;;;;;;;;;29.97;49.07;99530.09;5018434;28;880;-64
2023/06/09 06:50:11;;;;;;;;;;;;;;;30.88;44.96;99529.94;5018203;28;836;-63
2023/06/09 06:52:37;;;;;;;;;;;;;;;31.88;41.44;99533.88;5018191;28;891;-64
2023/06/09 06:55:08;;;;;;;;;;;;;;;32.84;38.14;99526.34;5018254;28;808;-63
2023/06/09 06:57:35;;;;;;;;;;;;;;;33.14;36.23;99528.56;5018142;28;895;-64
2023/06/09 07:00:08;;;;;;;;;;;;;;;33.04;34.35;99527.53;5018087;28;847;-64
2023/06/09 07:02:35;;;;;;;;;;;;;;;32.74;34.79;99531.06;5018058;28;1944;-64
2023/06/09 07:05:03;;;;;;;;;;;;;;;32.70;34.95;99519.97;5018073;28;828;-63
2023/06/09 07:07:30;;;;;;;;;;;;;;;32.71;35.55;99527.22;5016806;28;1372;-64
2023/06/09 07:09:56;;;;;;;;;;;;;;;32.96;34.33;99529.59;5017927;28;935;-64
2023/06/09 07:12:23;;;;;;;;;;;;;;;32.84;34.12;99531.28;5017785;28;1108;-65
2023/06/09 07:14:50;;;;;;;;;;;;;;;32.52;35.09;99521.00;5017934;28;934;-64
2023/06/09 07:17:16;;;;;;;;;;;;;;;32.70;34.44;99522.06;5016643;28;1417;-64
2023/06/09 07:19:43;;;;;;;;;;;;;;;32.81;34.69;99512.38;5017849;28;882;-65
2023/06/09 07:22:10;;;;;;;;;;;;;;;31.54;36.09;99517.56;5017823;28;896;-65
2023/06/09 07:24:35;;;;;;;;;;;;;;;32.07;34.99;99505.06;5017835;28;1980;-65
2023/06/09 07:27:03;;;;;;;;;;;;;;;32.91;33.93;99508.41;5017765;28;820;-64
2023/06/09 07:29:30;;;;;;;;;;;;;;;32.33;34.25;99524.13;5017831;28;883;-64
2023/06/09 07:31:57;;;;;;;;;;;;;;;32.89;34.00;99516.81;5018042;28;875;-64
2023/06/09 07:34:27;;;;;;;;;;;;;;;33.53;32.44;99512.22;5017827;28;896;-61
2023/06/09 07:36:53;;;;;;;;;;;;;;;34.03;30.63;99509.00;5017736;28;910;-62
2023/06/09 07:39:20;;;;;;;;;;;;;;;34.04;30.30;99506.91;5017677;28;878;-63
2023/06/09 07:41:47;;;;;;;;;;;;;;;33.76;29.93;99500.06;5017641;28;950;-62
2023/06/09 07:44:14;;;;;;;;;;;;;;;33.39;30.26;99507.22;5017676;28;1882;-65
2023/06/09 07:46:41;;;;;;;;;;;;;;;33.30;30.84;99506.44;5016339;28;1195;-64
2023/06/09 07:49:08;;;;;;;;;;;;;;;33.46;30.74;99495.03;5017581;28;899;-62
2023/06/09 07:51:36;;;;;;;;;;;;;;;33.90;30.66;99494.88;5017615;28;852;-62
2023/06/09 07:54:06;;;;;;;;;;;;;;;34.05;29.41;99496.97;5014795;28;915;-62
2023/06/09 07:56:33;;;;;;;;;;;;;;;34.11;29.20;99497.53;5014475;28;856;-62
2023/06/09 07:58:59;;;;;;;;;;;;;;;34.17;28.86;99498.13;5014452;28;852;-62
2023/06/09 08:01:26;;;;;;;;;;;;;;;34.69;28.17;99494.94;5014369;28;872;-61
2023/06/09 08:03:53;;;;;;;;;;;;;;;34.93;27.63;99493.47;5014324;28;1889;-62
2023/06/09 08:06:20;;;;;;;;;;;;;;;34.93;26.94;99494.28;5014282;28;884;-62
2023/06/09 08:08:46;;;;;;;;;;;;;;;34.67;27.87;99495.50;5014244;28;857;-61
2023/06/09 08:11:13;;;;;;;;;;;;;;;34.65;27.21;99500.31;5013966;28;1128;-62
2023/06/09 08:13:39;;;;;;;;;;;;;;;34.41;27.19;99504.56;5014188;28;914;-62
2023/06/09 08:16:06;;;;;;;;;;;;;;;34.06;28.24;99505.00;5014035;28;956;-62
2023/06/09 08:18:33;;;;;;;;;;;;;;;33.85;28.31;99493.72;5014038;28;903;-61
2023/06/09 08:21:00;;;;;;;;;;;;;;;34.24;28.25;99494.47;5014029;28;828;-62
2023/06/09 08:23:26;;;;;;;;;;;;;;;34.28;27.82;99497.72;5014141;28;1973;-61
2023/06/09 08:25:56;;;;;;;;;;;;;;;33.66;28.13;99493.34;5012738;28;813;-62
2023/06/09 08:28:23;;;;;;;;;;;;;;;33.52;28.58;99501.31;5013842;28;1006;-62
2023/06/09 08:30:50;;;;;;;;;;;;;;;33.86;27.78;99486.66;5013925;28;860;-61
2023/06/09 08:33:16;;;;;;;;;;;;;;;33.95;27.06;99494.69;5013798;28;871;-61
2023/06/09 08:35:43;;;;;;;;;;;;;;;34.05;27.42;99488.34;5013761;28;886;-62
2023/06/09 08:38:10;;;;;;;;;;;;;;;34.22;27.04;99485.69;5014042;28;918;-61
2023/06/09 08:40:37;;;;;;;;;;;;;;;34.00;27.78;99478.63;5012386;28;1232;-62
2023/06/09 08:43:06;;;;;;;;;;;;;;;33.70;28.25;99476.56;5013657;28;1957;-62
2023/06/09 08:45:37;;;;;;;;;;;;;;;33.53;28.28;99477.84;5013621;28;836;-61
2023/06/09 08:48:04;;;;;;;;;;;;;;;33.43;27.61;99484.72;5012133;28;919;-62
2023/06/09 08:50:31;;;;;;;;;;;;;;;33.26;27.67;99476.66;5013756;28;839;-62
2023/06/09 08:52:58;;;;;;;;;;;;;;;33.72;28.04;99476.75;5013480;28;866;-62
2023/06/09 08:55:25;;;;;;;;;;;;;;;34.14;27.87;99470.59;5013330;28;820;-62
2023/06/09 08:57:52;;;;;;;;;;;;;;;34.23;27.66;99470.00;5013336;28;863;-62
2023/06/09 09:00:19;;;;;;;;;;;;;;;34.14;28.52;99468.50;5013234;28;879;-62
2023/06/09 09:02:46;;;;;;;;;;;;;;;34.19;28.03;99461.03;5013472;28;1944;-63
2023/06/09 09:05:11;;;;;;;;;;;;;;;33.61;27.72;99460.69;5012692;28;824;-61
2023/06/09 09:07:39;;;;;;;;;;;;;;;33.35;28.43;99462.56;5011932;28;1183;-61
2023/06/09 09:10:06;;;;;;;;;;;;;;;33.31;28.51;99461.41;5013036;28;1014;-61
2023/06/09 09:12:47;;;;;;;;;;;;;;;32.95;27.96;99453.69;5012707;28;1313;-61
2023/06/09 09:15:12;;;;;;;;;;;;;;;32.77;29.38;99461.25;5013009;28;856;-61
2023/06/09 09:17:40;;;;;;;;;;;;;;;32.61;28.45;99456.81;5012882;28;863;-61
2023/06/09 09:20:07;;;;;;;;;;;;;;;32.94;28.99;99458.63;5012922;28;894;-61
2023/06/09 09:22:50;;;;;;;;;;;;;;;32.99;28.49;99453.28;5012742;28;1967;-61
2023/06/09 09:25:26;;;;;;;;;;;;;;;32.69;29.15;99455.50;5013038;28;878;-61
2023/06/09 09:28:02;;;;;;;;;;;;;;;32.46;29.45;99451.75;5012746;28;1016;-61
2023/06/09 09:30:55;;;;;;;;;;;;;;;32.65;29.06;99451.47;5012749;28;922;-62
2023/06/09 09:33:26;;;;;;;;;;;;;;;32.25;29.32;99443.25;5011605;28;1089;-62
2023/06/09 09:35:57;;;;;;;;;;;;;;;31.79;29.96;99437.97;5012582;28;909;-61
2023/06/09 09:38:25;;;;;;;;;;;;;;;31.82;30.52;99447.53;5012904;28;856;-62
2023/06/09 10:11:54;;;;;;;;;;;;;;;30.19;31.32;99415.69;5350956;22;1643;-52
2023/06/09 10:14:21;;;;;;;;;;;;;;;30.37;31.95;99414.06;5031852;28;850;-53
2023/06/09 10:16:51;;;;;;;;;;;;;;;30.65;31.22;99407.75;5030938;28;867;-52
2023/06/09 10:19:18;;;;;;;;;;;;;;;30.63;32.48;99416.09;5031660;28;983;-52
2023/06/09 10:21:46;;;;;;;;;;;;;;;30.53;33.22;99412.94;5030408;28;1168;-54
2023/06/09 10:24:14;;;;;;;;;;;;;;;30.45;33.83;99409.22;5031561;28;1971;-53
2023/06/09 10:26:41;;;;;;;;;;;;;;;30.44;33.18;99410.53;5031690;28;850;-54
2023/06/09 10:29:09;;;;;;;;;;;;;;;30.46;33.65;99398.59;5031752;28;894;-54
2023/06/09 10:31:41;;;;;;;;;;;;;;;30.49;33.66;99406.03;5031665;28;848;-53
2023/06/09 10:34:09;;;;;;;;;;;;;;;30.61;32.69;99398.75;5031431;28;867;-53
2023/06/09 10:36:37;;;;;;;;;;;;;;;30.71;33.03;99396.97;5031589;28;815;-53
2023/06/09 10:39:22;;;;;;;;;;;;;;;30.85;33.15;99396.91;5031510;28;922;-54
2023/06/09 10:42:10;;;;;;;;;;;;;;;31.18;33.16;99401.09;5031462;28;906;-53
2023/06/09 10:44:44;;;;;;;;;;;;;;;31.73;31.82;99409.56;5018201;28;1949;-54
2023/06/09 10:47:32;;;;;;;;;;;;;;;31.74;31.70;99404.63;5031508;28;876;-55
2023/06/09 10:49:58;;;;;;;;;;;;;;;31.64;32.24;99395.78;5031341;28;1042;-53
2023/06/09 10:52:38;;;;;;;;;;;;;;;32.02;32.03;99397.38;5031341;28;839;-53
2023/06/09 10:55:15;;;;;;;;;;;;;;;32.16;32.05;99404.53;5031396;28;867;-52
2023/06/09 10:57:43;;;;;;;;;;;;;;;32.35;31.88;99405.00;5031534;28;890;-50
2023/06/09 11:03:32;;;;;;;;;;;;;;;32.17;31.45;99400.31;5031223;28;1882;-54
2023/06/09 11:06:00;;;;;;;;;;;;;;;31.97;31.86;99384.75;5031219;28;863;-52
2023/06/09 11:08:47;;;;;;;;;;;;;;;32.27;31.92;99381.31;5031214;28;902;-53
2023/06/09 11:11:16;;;;;;;;;;;;;;;33.11;31.14;99386.53;5030718;28;1318;-52
2023/06/09 11:13:43;;;;;;;;;;;;;;;33.41;30.22;99387.91;5031123;28;804;-53
2023/06/09 11:16:09;;;;;;;;;;;;;;;33.52;30.85;99381.81;5031151;28;868;-54
2023/06/09 11:18:38;;;;;;;;;;;;;;;33.25;31.13;99381.41;5031060;28;828;-55
2023/06/09 11:21:08;;;;;;;;;;;;;;;32.20;31.56;99387.00;5031102;28;835;-53
2023/06/09 11:23:54;;;;;;;;;;;;;;;32.29;32.00;99390.09;5031440;28;1910;-54
2023/06/09 11:26:22;;;;;;;;;;;;;;;32.51;32.17;99382.16;5030863;28;911;-53
2023/06/09 11:28:50;;;;;;;;;;;;;;;33.08;30.91;99384.09;5033846;28;894;-55
2023/06/09 11:31:16;;;;;;;;;;;;;;;32.18;32.41;99390.44;5034769;28;832;-53
2023/06/09 11:33:47;;;;;;;;;;;;;;;31.95;32.67;99381.69;5033808;28;859;-54
2023/06/09 11:36:21;;;;;;;;;;;;;;;33.20;31.21;99379.50;5034811;28;832;-53
2023/06/09 11:38:49;;;;;;;;;;;;;;;34.07;29.99;99368.91;5034641;28;812;-51
2023/06/09 11:41:19;;;;;;;;;;;;;;;35.00;29.23;99365.63;5034467;28;938;-52
2023/06/09 11:43:49;;;;;;;;;;;;;;;35.15;28.67;99356.91;5034735;28;1928;-52
2023/06/09 11:46:16;;;;;;;;;;;;;;;35.87;28.47;99365.81;5034529;28;819;-52
2023/06/09 11:48:59;;;;;;;;;;;;;;;36.19;28.07;99362.06;5034361;28;939;-54
2023/06/09 11:51:26;;;;;;;;;;;;;;;36.50;27.20;99362.41;5034409;28;886;-54
2023/06/09 11:53:52;;;;;;;;;;;;;;;36.36;27.00;99358.34;5034460;28;878;-54
2023/06/09 11:56:19;;;;;;;;;;;;;;;36.13;26.43;99364.44;5034437;28;905;-55
2023/06/09 11:58:46;;;;;;;;;;;;;;;35.62;27.69;99360.88;5034557;28;812;-55
2023/06/09 12:01:13;;;;;;;;;;;;;;;35.67;27.18;99354.16;5034225;28;836;-55
2023/06/09 12:03:40;;;;;;;;;;;;;;;36.45;26.60;99359.81;5034014;28;1890;-54
2023/06/09 12:06:08;;;;;;;;;;;;;;;36.55;26.56;99354.84;5034158;28;811;-54
2023/06/09 12:08:34;;;;;;;;;;;;;;;36.71;26.79;99344.66;5034035;28;843;-54
2023/06/09 12:11:02;;;;;;;;;;;;;;;36.59;26.07;99358.06;5033720;28;1427;-55
2023/06/09 12:13:28;;;;;;;;;;;;;;;36.48;26.42;99352.84;5033985;28;828;-54
2023/06/09 12:15:55;;;;;;;;;;;;;;;37.01;25.43;99353.44;5033972;28;866;-53
2023/06/09 12:18:21;;;;;;;;;;;;;;;37.16;25.58;99338.81;5033849;28;906;-56
2023/06/09 12:20:51;;;;;;;;;;;;;;;37.07;25.45;99336.66;5033893;28;835;-55
2023/06/09 12:23:17;;;;;;;;;;;;;;;36.79;26.06;99342.44;5033659;28;1973;-55
2023/06/09 12:25:48;;;;;;;;;;;;;;;37.07;25.78;99336.66;5033761;28;831;-55
2023/06/09 12:28:17;;;;;;;;;;;;;;;37.03;25.63;99336.34;5033732;28;950;-55
2023/06/09 12:30:50;;;;;;;;;;;;;;;36.98;25.80;99330.25;5033848;28;966;-55
2023/06/09 12:33:18;;;;;;;;;;;;;;;36.91;25.58;99334.00;5033703;28;922;-56
2023/06/09 12:35:45;;;;;;;;;;;;;;;36.99;25.38;99334.63;5033600;28;832;-55
2023/06/09 12:38:13;;;;;;;;;;;;;;;36.91;25.59;99324.59;5033706;28;918;-55
2023/06/09 12:40:47;;;;;;;;;;;;;;;37.27;24.73;99326.72;5032506;28;919;-55
2023/06/09 12:43:23;;;;;;;;;;;;;;;37.73;25.35;99322.28;5033404;28;1890;-55
2023/06/09 12:45:54;;;;;;;;;;;;;;;37.56;24.74;99329.69;5034102;28;765;-55
2023/06/09 12:48:20;;;;;;;;;;;;;;;37.62;24.37;99315.00;5033315;28;807;-54
2023/06/09 12:50:47;;;;;;;;;;;;;;;36.47;25.18;99322.56;5033332;28;863;-55
2023/06/09 12:53:14;;;;;;;;;;;;;;;36.09;26.43;99309.41;5033251;28;837;-54
2023/06/09 12:55:41;;;;;;;;;;;;;;;36.59;25.85;99312.78;5033347;28;903;-56
2023/06/09 12:58:10;;;;;;;;;;;;;;;35.08;27.04;99306.78;5033135;28;812;-54
2023/06/09 13:00:37;;;;;;;;;;;;;;;33.74;28.42;99305.75;5033157;28;824;-53
2023/06/09 13:03:05;;;;;;;;;;;;;;;34.08;28.85;99301.63;5033032;28;1975;-54
2023/06/09 13:05:32;;;;;;;;;;;;;;;35.36;27.15;99294.09;5032999;28;836;-55
2023/06/09 13:07:59;;;;;;;;;;;;;;;36.16;26.60;99285.56;5032918;28;879;-55
2023/06/09 13:10:26;;;;;;;;;;;;;;;35.70;27.28;99301.25;5032862;28;1004;-55
2023/06/09 13:12:53;;;;;;;;;;;;;;;34.91;27.57;99298.09;5032682;28;1400;-55
2023/06/09 13:15:20;;;;;;;;;;;;;;;33.41;29.36;99290.53;5032884;28;824;-53
2023/06/09 13:17:47;;;;;;;;;;;;;;;33.09;29.59;99289.03;5032785;28;812;-54
2023/06/09 13:20:15;;;;;;;;;;;;;;;33.71;29.45;99284.00;5032735;28;858;-54
2023/06/09 13:22:41;;;;;;;;;;;;;;;34.51;28.72;99281.72;5031313;28;1910;-54
2023/06/09 13:25:09;;;;;;;;;;;;;;;35.22;28.07;99286.41;5031436;28;832;-54
2023/06/09 13:27:36;;;;;;;;;;;;;;;35.65;27.62;99287.13;5032560;28;947;-55
2023/06/09 13:30:04;;;;;;;;;;;;;;;35.67;27.53;99284.41;5031182;28;853;-55
2023/06/09 13:32:30;;;;;;;;;;;;;;;35.91;26.96;99279.91;5032519;28;859;-55
2023/06/09 13:34:57;;;;;;;;;;;;;;;35.93;26.51;99285.84;5032417;28;931;-54
2023/06/09 13:37:24;;;;;;;;;;;;;;;36.19;26.28;99278.66;5031018;28;1236;-55
2023/06/09 13:39:51;;;;;;;;;;;;;;;35.78;26.40;99273.19;5032268;28;864;-55
2023/06/09 13:42:17;;;;;;;;;;;;;;;35.47;27.49;99275.59;5032497;28;872;-55